createdAt,value
2018-06-28T00:02:06.979Z,2.53
2018-06-28T00:04:19.367Z,2.53
2018-06-28T00:06:31.711Z,3.00
2018-06-28T00:08:44.225Z,2.73
2018-06-28T00:10:56.754Z,3.10
2018-06-28T00:13:09.183Z,3.27
2018-06-28T00:15:21.543Z,3.37
2018-06-28T00:17:33.891Z,2.70
2018-06-28T00:19:46.230Z,2.80
2018-06-28T00:21:58.698Z,2.63
2018-06-28T00:24:11.039Z,3.20
2018-06-28T00:26:23.410Z,2.93
2018-06-28T00:28:36.022Z,3.47
2018-06-28T00:30:48.379Z,2.77
2018-06-28T00:33:00.722Z,2.90
2018-06-28T00:35:13.151Z,3.50
2018-06-28T00:37:25.603Z,3.07
2018-06-28T00:39:38.273Z,2.93
2018-06-28T00:41:50.716Z,2.30
2018-06-28T00:44:03.219Z,2.73
2018-06-28T00:46:15.652Z,2.73
2018-06-28T00:48:28.043Z,3.00
2018-06-28T00:50:40.387Z,3.27
2018-06-28T00:52:52.800Z,3.50
2018-06-28T00:55:05.189Z,3.37
2018-06-28T00:57:17.634Z,3.70
2018-06-28T00:59:30.046Z,3.03
2018-06-28T01:01:42.570Z,3.13
2018-06-28T01:03:54.987Z,3.50
2018-06-28T01:06:07.310Z,3.47
2018-06-28T01:08:19.691Z,3.50
2018-06-28T01:10:32.190Z,2.90
2018-06-28T01:12:44.640Z,3.30
2018-06-28T01:14:57.086Z,3.50
2018-06-28T01:17:09.475Z,3.50
2018-06-28T01:19:21.890Z,3.30
2018-06-28T01:21:34.235Z,3.23
2018-06-28T01:23:46.644Z,3.27
2018-06-28T01:25:59.780Z,3.23
2018-06-28T01:28:12.419Z,3.43
2018-06-28T01:30:24.773Z,3.40
2018-06-28T01:32:37.158Z,3.30
2018-06-28T01:34:49.586Z,3.80
2018-06-28T01:37:02.030Z,3.53
2018-06-28T01:39:14.378Z,3.20
2018-06-28T01:41:36.998Z,3.50
2018-06-28T01:43:49.390Z,3.07
2018-06-28T01:46:01.735Z,3.60
2018-06-28T01:48:14.067Z,3.23
2018-06-28T01:50:26.451Z,3.73
2018-06-28T01:52:38.811Z,3.90
2018-06-28T01:54:51.199Z,3.53
2018-06-28T01:57:03.649Z,3.63
2018-06-28T01:59:16.005Z,3.87
2018-06-28T02:01:28.392Z,3.30
2018-06-28T02:03:40.783Z,3.60
2018-06-28T02:05:54.072Z,3.87
2018-06-28T02:08:06.850Z,4.03
2018-06-28T02:10:19.210Z,3.80
2018-06-28T02:12:31.579Z,3.80
2018-06-28T02:14:44.280Z,4.03
2018-06-28T02:16:56.594Z,3.83
2018-06-28T02:19:08.945Z,4.07
2018-06-28T02:21:21.275Z,3.70
2018-06-28T02:23:33.647Z,3.50
2018-06-28T02:25:45.985Z,3.90
2018-06-28T02:27:58.630Z,3.93
2018-06-28T02:30:11.082Z,4.03
2018-06-28T02:32:23.498Z,4.13
2018-06-28T02:34:35.919Z,4.17
2018-06-28T02:36:48.219Z,4.07
2018-06-28T02:39:00.650Z,4.10
2018-06-28T02:41:13.006Z,3.90
2018-06-28T02:43:25.353Z,3.57
2018-06-28T02:45:37.695Z,3.60
2018-06-28T02:47:50.144Z,4.07
2018-06-28T02:50:02.559Z,4.40
2018-06-28T02:52:14.921Z,4.13
2018-06-28T02:54:27.206Z,4.00
2018-06-28T02:56:39.670Z,3.87
2018-06-28T02:58:52.033Z,4.07
2018-06-28T03:01:04.447Z,3.97
2018-06-28T03:03:16.820Z,3.97
2018-06-28T03:05:29.187Z,4.43
2018-06-28T03:07:41.607Z,4.27
2018-06-28T03:09:54.027Z,4.13
2018-06-28T03:12:06.419Z,4.30
2018-06-28T03:14:18.747Z,4.47
2018-06-28T03:16:31.366Z,4.30
2018-06-28T03:18:44.029Z,4.20
2018-06-28T03:20:56.379Z,4.53
2018-06-28T03:23:08.737Z,4.53
2018-06-28T03:25:21.103Z,4.63
2018-06-28T03:27:33.466Z,3.90
2018-06-28T03:29:45.798Z,4.53
2018-06-28T03:31:58.259Z,4.30
2018-06-28T03:34:10.753Z,4.67
2018-06-28T03:36:23.191Z,4.10
2018-06-28T03:38:35.523Z,4.60
2018-06-28T03:40:47.904Z,4.93
2018-06-28T03:43:00.234Z,4.70
2018-06-28T03:45:12.613Z,4.87
2018-06-28T03:47:24.991Z,5.07
2018-06-28T03:49:37.294Z,4.37
2018-06-28T03:51:49.707Z,4.50
2018-06-28T03:54:02.221Z,4.70
2018-06-28T03:56:14.597Z,4.83
2018-06-28T03:58:26.939Z,5.10
2018-06-28T04:00:39.326Z,4.37
2018-06-28T04:02:51.766Z,4.40
2018-06-28T04:05:04.134Z,4.10
2018-06-28T04:07:16.506Z,4.43
2018-06-28T04:09:28.904Z,4.80
2018-06-28T04:11:41.235Z,4.27
2018-06-28T04:13:53.766Z,5.00
2018-06-28T04:16:06.310Z,5.27
2018-06-28T04:18:18.828Z,5.30
2018-06-28T04:20:31.167Z,5.30
2018-06-28T04:22:43.496Z,5.10
2018-06-28T04:24:56.347Z,4.80
2018-06-28T04:27:08.702Z,5.10
2018-06-28T04:29:21.066Z,5.20
2018-06-28T04:31:33.474Z,4.80
2018-06-28T04:33:45.884Z,4.70
2018-06-28T04:35:58.344Z,4.87
2018-06-28T04:38:10.738Z,5.00
2018-06-28T04:40:23.149Z,6.23
2018-06-28T04:42:35.529Z,6.37
2018-06-28T04:44:47.863Z,5.50
2018-06-28T04:47:00.256Z,5.30
2018-06-28T04:49:12.986Z,3.63
2018-06-28T04:51:25.336Z,4.93
2018-06-28T04:53:37.766Z,4.53
2018-06-28T04:55:50.268Z,5.40
2018-06-28T04:58:02.863Z,3.50
2018-06-28T05:00:15.267Z,3.57
2018-06-28T05:02:27.630Z,3.67
2018-06-28T05:04:39.990Z,3.57
2018-06-28T05:06:52.479Z,4.30
2018-06-28T05:09:07.107Z,4.80
2018-06-28T05:11:19.526Z,3.57
2018-06-28T05:13:31.968Z,4.73
2018-06-28T05:15:44.495Z,5.40
2018-06-28T05:17:56.910Z,5.10
2018-06-28T05:20:09.251Z,4.60
2018-06-28T05:22:21.698Z,5.23
2018-06-28T05:24:34.072Z,5.70
2018-06-28T05:26:46.590Z,4.30
2018-06-28T05:28:58.974Z,4.73
2018-06-28T05:31:11.313Z,3.53
2018-06-28T05:33:23.710Z,4.13
2018-06-28T05:35:36.169Z,5.00
2018-06-28T05:37:48.606Z,4.87
2018-06-28T05:40:00.947Z,3.60
2018-06-28T05:42:13.354Z,3.20
2018-06-28T05:44:25.702Z,3.23
2018-06-28T05:46:38.030Z,4.00
2018-06-28T05:48:50.413Z,4.57
2018-06-28T05:51:02.830Z,4.63
2018-06-28T05:53:15.184Z,3.70
2018-06-28T05:55:27.658Z,5.13
2018-06-28T05:57:40.007Z,4.90
2018-06-28T05:59:52.378Z,4.50
2018-06-28T06:02:05.073Z,4.07
2018-06-28T06:04:17.415Z,4.63
2018-06-28T06:06:34.507Z,5.00
2018-06-28T06:08:46.891Z,4.60
2018-06-28T06:10:59.243Z,4.77
2018-06-28T06:13:11.766Z,4.43
2018-06-28T06:15:24.134Z,4.50
2018-06-28T06:17:36.491Z,4.23
2018-06-28T06:19:48.886Z,4.17
2018-06-28T06:22:01.294Z,4.03
2018-06-28T06:24:13.623Z,4.70
2018-06-28T06:26:30.090Z,4.33
2018-06-28T06:28:42.531Z,4.40
2018-06-28T06:30:54.895Z,4.57
2018-06-28T06:33:07.302Z,4.53
2018-06-28T06:35:19.703Z,4.40
2018-06-28T06:37:32.074Z,4.27
2018-06-28T06:39:44.446Z,4.40
2018-06-28T06:41:56.829Z,4.27
2018-06-28T06:44:10.258Z,4.13
2018-06-28T06:46:23.374Z,4.10
2018-06-28T06:48:35.746Z,3.90
2018-06-28T06:50:48.102Z,4.13
2018-06-28T06:53:00.545Z,3.63
2018-06-28T06:55:12.934Z,3.93
2018-06-28T06:57:25.331Z,4.10
2018-06-28T06:59:37.721Z,3.90
2018-06-28T07:01:50.228Z,4.07
2018-06-28T07:04:02.687Z,4.10
2018-06-28T07:06:15.167Z,3.73
2018-06-28T07:08:32.430Z,3.83
2018-06-28T07:10:45.800Z,3.40
2018-06-28T07:12:59.147Z,3.70
2018-06-28T07:15:11.907Z,3.93
2018-06-28T07:17:24.268Z,3.47
2018-06-28T07:19:36.607Z,3.93
2018-06-28T07:21:49.007Z,3.87
2018-06-28T07:24:01.746Z,3.60
2018-06-28T07:26:14.020Z,3.70
2018-06-28T07:28:26.434Z,3.80
2018-06-28T07:30:38.767Z,4.07
2018-06-28T07:32:51.122Z,3.67
2018-06-28T07:35:03.624Z,3.60
2018-06-28T07:37:16.032Z,3.60
2018-06-28T07:39:28.354Z,3.70
2018-06-28T07:41:40.838Z,3.70
2018-06-28T07:43:53.152Z,4.10
2018-06-28T07:46:05.554Z,3.30
2018-06-28T07:48:17.879Z,4.10
2018-06-28T07:50:30.878Z,4.00
2018-06-28T07:52:43.354Z,4.27
2018-06-28T07:54:55.707Z,3.83
2018-06-28T07:57:08.110Z,3.97
2018-06-28T07:59:20.562Z,4.40
2018-06-28T08:01:33.125Z,4.67
2018-06-28T08:03:45.638Z,3.93
2018-06-28T08:05:58.024Z,4.53
2018-06-28T08:08:10.371Z,3.70
2018-06-28T08:10:22.781Z,4.50
2018-06-28T08:12:35.358Z,4.00
2018-06-28T08:14:47.794Z,3.60
2018-06-28T08:17:00.215Z,3.90
2018-06-28T08:19:12.634Z,4.67
2018-06-28T08:21:25.144Z,4.37
2018-06-28T08:23:37.546Z,5.00
2018-06-28T08:25:49.893Z,4.03
2018-06-28T08:28:02.391Z,4.20
2018-06-28T08:30:14.775Z,4.27
2018-06-28T08:32:28.102Z,4.13
2018-06-28T08:34:40.578Z,4.03
2018-06-28T08:36:52.959Z,5.23
2018-06-28T08:39:07.195Z,4.80
2018-06-28T08:41:19.530Z,4.50
2018-06-28T08:43:32.495Z,4.60
2018-06-28T08:45:44.837Z,5.33
2018-06-28T08:47:57.302Z,4.63
2018-06-28T08:50:09.692Z,4.77
2018-06-28T08:52:22.017Z,5.20
2018-06-28T08:54:34.451Z,4.30
2018-06-28T08:56:46.914Z,4.57
2018-06-28T08:58:59.327Z,5.13
2018-06-28T09:01:12.467Z,5.00
2018-06-28T09:03:24.907Z,4.77
2018-06-28T09:05:37.330Z,5.00
2018-06-28T09:07:49.944Z,4.00
2018-06-28T09:10:02.644Z,4.43
2018-06-28T09:12:14.994Z,4.80
2018-06-28T09:14:27.407Z,4.50
2018-06-28T09:16:39.866Z,3.90
2018-06-28T09:18:52.275Z,4.27
2018-06-28T09:21:04.814Z,4.90
2018-06-28T09:23:17.235Z,4.87
2018-06-28T09:25:29.778Z,4.73
2018-06-28T09:27:42.333Z,4.47
2018-06-28T09:29:54.829Z,3.63
2018-06-28T09:32:07.229Z,4.20
2018-06-28T09:34:19.594Z,3.63
2018-06-28T09:36:32.563Z,4.50
2018-06-28T09:38:44.920Z,4.10
2018-06-28T09:40:57.321Z,4.00
2018-06-28T09:43:09.998Z,4.17
2018-06-28T09:45:22.322Z,4.40
2018-06-28T09:47:34.794Z,4.60
2018-06-28T09:49:47.149Z,3.93
2018-06-28T09:52:00.604Z,4.20
2018-06-28T09:54:13.797Z,4.23
2018-06-28T09:56:26.102Z,4.30
2018-06-28T09:58:38.410Z,4.63
2018-06-28T10:00:50.760Z,4.07
2018-06-28T10:03:03.134Z,4.40
2018-06-28T10:05:15.557Z,4.40
2018-06-28T10:07:27.957Z,4.30
2018-06-28T10:09:40.325Z,4.27
2018-06-28T10:11:52.707Z,3.70
2018-06-28T10:14:05.172Z,3.93
2018-06-28T10:16:17.531Z,3.30
2018-06-28T10:18:30.685Z,4.00
2018-06-28T10:20:43.190Z,4.50
2018-06-28T10:22:55.641Z,3.83
2018-06-28T10:25:08.211Z,3.80
2018-06-28T10:27:21.682Z,4.47
2018-06-28T10:29:34.270Z,4.50
2018-06-28T10:31:48.791Z,4.67
2018-06-28T10:34:01.181Z,4.80
2018-06-28T10:36:14.386Z,4.80
2018-06-28T10:38:27.274Z,4.80
2018-06-28T10:40:39.744Z,4.70
2018-06-28T10:42:53.386Z,4.43
2018-06-28T10:45:05.831Z,4.90
2018-06-28T10:47:18.307Z,5.00
2018-06-28T10:49:30.951Z,4.47
2018-06-28T10:51:44.555Z,4.30
2018-06-28T10:53:57.019Z,4.70
2018-06-28T10:56:09.409Z,4.23
2018-06-28T10:58:21.804Z,4.43
2018-06-28T11:00:34.362Z,5.50
2018-06-28T11:02:47.926Z,4.80
2018-06-28T11:05:00.641Z,5.20
2018-06-28T11:07:14.798Z,4.80
2018-06-28T11:09:27.311Z,4.47
2018-06-28T11:11:40.478Z,5.00
2018-06-28T11:13:52.878Z,4.60
2018-06-28T11:16:05.308Z,4.90
2018-06-28T11:18:19.625Z,4.07
2018-06-28T11:20:32.130Z,4.20
2018-06-28T11:22:44.588Z,4.47
2018-06-28T11:24:57.116Z,4.47
2018-06-28T11:27:09.516Z,4.27
2018-06-28T11:29:22.138Z,4.60
2018-06-28T11:31:34.798Z,3.63
2018-06-28T11:33:49.839Z,4.30
2018-06-28T11:36:03.099Z,3.50
2018-06-28T11:38:23.584Z,3.90
2018-06-28T11:40:37.982Z,5.07
2018-06-28T11:42:50.353Z,4.00
2018-06-28T11:45:03.786Z,4.43
2018-06-28T11:47:16.305Z,4.60
2018-06-28T11:49:28.774Z,4.60
2018-06-28T11:51:41.231Z,4.27
2018-06-28T11:53:53.901Z,3.90
2018-06-28T11:56:08.031Z,4.50
2018-06-28T11:58:20.715Z,4.87
2018-06-28T12:00:33.445Z,5.00
2018-06-28T12:02:46.170Z,4.13
2018-06-28T12:04:59.395Z,3.23
2018-06-28T12:07:11.987Z,4.70
2018-06-28T12:09:24.483Z,3.77
2018-06-28T12:11:39.120Z,5.27
2018-06-28T12:13:51.466Z,5.50
2018-06-28T12:16:04.704Z,5.60
2018-06-28T12:18:17.128Z,5.63
2018-06-28T12:20:30.858Z,5.67
2018-06-28T12:22:48.295Z,5.93
2018-06-28T12:25:00.799Z,5.03
2018-06-28T12:27:13.294Z,6.30
2018-06-28T12:29:25.697Z,6.13
2018-06-28T12:31:42.841Z,7.13
2018-06-28T12:33:56.931Z,6.33
2018-06-28T12:36:09.374Z,6.17
2018-06-28T12:38:22.234Z,6.60
2018-06-28T12:40:34.798Z,6.33
2018-06-28T12:42:47.424Z,6.37
2018-06-28T12:44:59.925Z,6.80
2018-06-28T12:47:50.514Z,6.77
2018-06-28T12:50:03.537Z,5.37
2018-06-28T12:52:27.220Z,7.00
2018-06-28T12:54:39.663Z,7.77
2018-06-28T12:56:52.492Z,6.77
2018-06-28T12:59:06.327Z,8.67
2018-06-28T13:01:18.830Z,7.23
2018-06-28T13:03:32.459Z,7.43
2018-06-28T13:05:44.880Z,7.43
2018-06-28T13:07:57.327Z,8.00
2018-06-28T13:10:11.133Z,7.10
2018-06-28T13:12:23.602Z,6.87
2018-06-28T13:14:36.031Z,7.60
2018-06-28T13:16:48.435Z,5.47
2018-06-28T13:19:00.918Z,7.83
2018-06-28T13:21:13.351Z,7.13
2018-06-28T13:23:25.720Z,5.00
2018-06-28T13:25:38.269Z,8.80
2018-06-28T13:27:50.823Z,8.23
2018-06-28T13:30:04.843Z,6.43
2018-06-28T13:32:17.520Z,7.93
2018-06-28T13:34:30.710Z,6.93
2018-06-28T13:36:43.058Z,7.27
2018-06-28T13:38:57.236Z,6.33
2018-06-28T13:41:09.964Z,8.03
2018-06-28T13:43:22.315Z,7.63
2018-06-28T13:45:34.762Z,6.13
2018-06-28T13:47:47.185Z,6.00
2018-06-28T13:49:59.776Z,7.47
2018-06-28T13:52:12.311Z,7.40
2018-06-28T13:54:25.153Z,6.57
2018-06-28T13:56:37.615Z,7.33
2018-06-28T13:58:50.231Z,7.50
2018-06-28T14:01:04.746Z,6.43
2018-06-28T14:03:17.339Z,6.20
2018-06-28T14:05:30.027Z,6.07
2018-06-28T14:07:42.460Z,6.27
2018-06-28T14:09:55.071Z,7.10
2018-06-28T14:12:07.521Z,5.97
2018-06-28T14:14:19.946Z,6.57
2018-06-28T14:16:32.488Z,7.67
2018-06-28T14:18:45.155Z,8.20
2018-06-28T14:20:57.539Z,8.23
2018-06-28T14:23:09.986Z,7.20
2018-06-28T14:25:25.668Z,8.70
2018-06-28T14:27:38.731Z,8.73
2018-06-28T14:29:51.102Z,9.30
2018-06-28T14:32:03.543Z,8.80
2018-06-28T14:34:17.824Z,8.93
2018-06-28T14:36:30.222Z,8.60
2018-06-28T14:38:42.661Z,8.40
2018-06-28T14:40:55.016Z,8.00
2018-06-28T14:43:08.300Z,7.30
2018-06-28T14:45:21.540Z,8.87
2018-06-28T14:47:34.026Z,8.07
2018-06-28T14:49:46.418Z,8.23
2018-06-28T14:51:58.785Z,8.87
2018-06-28T14:54:11.261Z,9.07
2018-06-28T14:56:23.597Z,7.47
2018-06-28T14:58:36.039Z,8.00
2018-06-28T15:00:48.399Z,9.93
2018-06-28T15:03:00.836Z,11.03
2018-06-28T15:05:13.262Z,10.17
2018-06-28T15:07:25.670Z,9.70
2018-06-28T15:09:38.110Z,10.70
2018-06-28T15:11:50.495Z,10.70
2018-06-28T15:14:02.975Z,12.87
2018-06-28T15:16:15.392Z,12.17
2018-06-28T15:18:27.858Z,13.43
2018-06-28T15:20:40.506Z,12.57
2018-06-28T15:22:52.954Z,10.50
2018-06-28T15:25:05.382Z,10.83
2018-06-28T15:27:17.800Z,14.17
2018-06-28T15:29:30.385Z,13.63
2018-06-28T15:31:42.823Z,11.60
2018-06-28T15:33:55.321Z,12.73
2018-06-28T15:36:07.725Z,12.63
2018-06-28T15:38:20.306Z,11.73
2018-06-28T15:40:32.679Z,13.33
2018-06-28T15:42:45.173Z,14.27
2018-06-28T15:44:57.606Z,14.27
2018-06-28T15:47:10.069Z,13.97
2018-06-28T15:49:22.466Z,13.13
2018-06-28T15:51:34.910Z,13.80
2018-06-28T15:53:47.876Z,15.37
2018-06-28T15:56:00.431Z,14.10
2018-06-28T15:58:13.643Z,13.10
2018-06-28T16:00:26.052Z,16.07
2018-06-28T16:02:38.455Z,16.27
2018-06-28T16:04:50.855Z,16.23
2018-06-28T16:07:03.382Z,15.93
2018-06-28T16:09:15.848Z,17.60
2018-06-28T16:11:28.311Z,14.27
2018-06-28T16:13:40.977Z,14.70
2018-06-28T16:15:53.467Z,15.57
2018-06-28T16:18:05.913Z,16.40
2018-06-28T16:20:18.347Z,17.47
2018-06-28T16:22:30.844Z,17.07
2018-06-28T16:24:44.323Z,16.00
2018-06-28T16:26:56.757Z,17.63
2018-06-28T16:29:09.218Z,16.20
2018-06-28T16:31:21.673Z,16.50
2018-06-28T16:33:34.074Z,17.10
2018-06-28T16:35:46.545Z,14.00
2018-06-28T16:37:58.994Z,16.47
2018-06-28T16:40:11.333Z,16.37
2018-06-28T16:42:23.670Z,17.50
2018-06-28T16:44:36.107Z,15.27
2018-06-28T16:46:49.554Z,15.80
2018-06-28T16:49:02.115Z,16.37
2018-06-28T16:51:14.622Z,16.50
2018-06-28T16:53:27.059Z,11.90
2018-06-28T16:55:39.821Z,17.27
2018-06-28T16:57:52.376Z,15.73
2018-06-28T17:00:06.522Z,13.57
2018-06-28T17:02:18.974Z,13.00
2018-06-28T17:04:31.557Z,15.07
2018-06-28T17:06:43.998Z,15.03
2018-06-28T17:08:56.478Z,15.13
2018-06-28T17:11:08.899Z,16.93
2018-06-28T17:13:21.566Z,14.33
2018-06-28T17:15:34.244Z,17.20
2018-06-28T17:17:46.655Z,18.73
2018-06-28T17:19:59.123Z,13.40
2018-06-28T17:22:12.408Z,18.57
2018-06-28T17:24:24.731Z,16.73
2018-06-28T17:26:37.424Z,20.13
2018-06-28T17:28:49.851Z,17.97
2018-06-28T17:31:02.215Z,17.90
2018-06-28T17:33:14.667Z,15.83
2018-06-28T17:35:27.046Z,14.03
2018-06-28T17:37:39.591Z,15.10
2018-06-28T17:39:51.973Z,15.27
2018-06-28T17:42:04.678Z,15.10
2018-06-28T17:44:17.174Z,15.60
2018-06-28T17:46:29.606Z,16.30
2018-06-28T17:48:42.832Z,15.87
2018-06-28T17:50:55.375Z,14.23
2018-06-28T17:53:07.786Z,10.63
2018-06-28T17:55:20.286Z,14.07
2018-06-28T17:57:32.690Z,15.27
2018-06-28T17:59:45.206Z,16.83
2018-06-28T18:01:57.756Z,13.97
2018-06-28T18:04:10.151Z,12.80
2018-06-28T18:06:22.611Z,11.73
2018-06-28T18:08:35.797Z,11.90
2018-06-28T18:10:48.565Z,11.17
2018-06-28T18:13:01.266Z,13.03
2018-06-28T18:15:13.736Z,12.23
2018-06-28T18:17:26.110Z,11.80
2018-06-28T18:19:38.517Z,11.13
2018-06-28T18:21:50.910Z,12.73
2018-06-28T18:24:03.324Z,10.30
2018-06-28T18:26:15.749Z,8.83
2018-06-28T18:28:28.211Z,9.67
2018-06-28T18:30:40.626Z,8.67
2018-06-28T18:32:52.974Z,8.70
2018-06-28T18:35:05.381Z,9.77
2018-06-28T18:37:17.803Z,10.30
2018-06-28T18:39:30.247Z,7.20
2018-06-28T18:41:42.679Z,5.93
2018-06-28T18:43:55.131Z,7.13
2018-06-28T18:46:07.901Z,7.73
2018-06-28T18:48:20.475Z,7.67
2018-06-28T18:50:33.015Z,7.17
2018-06-28T18:52:45.410Z,6.37
2018-06-28T18:54:58.015Z,5.43
2018-06-28T18:57:10.357Z,6.90
2018-06-28T18:59:22.716Z,6.77
2018-06-28T19:01:35.233Z,7.63
2018-06-28T19:03:48.328Z,7.07
2018-06-28T19:06:00.778Z,8.17
2018-06-28T19:08:13.173Z,8.87
2018-06-28T19:10:31.053Z,9.30
2018-06-28T19:12:43.455Z,8.23
2018-06-28T19:17:06.448Z,10.60
2018-06-28T19:19:18.930Z,10.53
2018-06-28T19:21:36.894Z,10.43
2018-06-28T19:23:50.911Z,11.10
2018-06-28T19:26:03.550Z,10.80
2018-06-28T19:28:15.981Z,10.90
2018-06-28T19:30:33.949Z,10.97
2018-06-28T19:32:46.342Z,11.47
2018-06-28T19:34:59.422Z,11.50
2018-06-28T19:37:16.294Z,11.20
2018-06-28T19:39:34.270Z,10.60
2018-06-28T19:41:52.283Z,11.03
2018-06-28T19:44:04.676Z,10.63
2018-06-28T19:46:17.281Z,9.63
2018-06-28T19:48:29.726Z,10.57
2018-06-28T19:52:50.428Z,10.53
2018-06-28T19:55:02.998Z,10.03
2018-06-28T19:57:15.519Z,9.73
2018-06-28T19:59:28.008Z,9.63
2018-06-28T20:01:46.271Z,10.90
2018-06-28T20:04:04.347Z,9.27
2018-06-28T20:06:16.922Z,10.40
2018-06-28T20:08:29.377Z,11.40
2018-06-28T20:10:41.926Z,10.30
2018-06-28T20:12:59.834Z,10.70
2018-06-28T20:15:17.718Z,11.17
2018-06-28T20:17:35.548Z,9.10
2018-06-28T20:20:19.675Z,9.40
2018-06-28T20:22:32.154Z,9.27
2018-06-28T20:24:44.554Z,9.80
2018-06-28T20:27:02.378Z,8.93
2018-06-28T20:29:20.306Z,9.40
2018-06-28T20:31:38.103Z,8.80
2018-06-28T20:33:56.131Z,9.60
2018-06-28T20:36:08.491Z,10.67
2018-06-28T20:38:20.894Z,9.43
2018-06-28T20:40:33.339Z,10.10
2018-06-28T20:42:45.702Z,9.03
2018-06-28T20:44:58.235Z,8.47
2018-06-28T20:47:10.562Z,8.70
2018-06-28T20:49:23.037Z,8.40
2018-06-28T20:51:35.395Z,8.20
2018-06-28T20:53:47.719Z,8.43
2018-06-28T20:56:00.118Z,10.07
2018-06-28T20:58:12.453Z,11.60
2018-06-28T21:00:24.834Z,8.70
2018-06-28T21:02:40.903Z,9.97
2018-06-28T21:04:53.237Z,8.70
2018-06-28T21:07:05.743Z,8.23
2018-06-28T21:09:18.114Z,9.93
2018-06-28T21:11:30.825Z,7.30
2018-06-28T21:13:43.196Z,7.67
2018-06-28T21:15:55.721Z,7.53
2018-06-28T21:18:08.171Z,8.13
2018-06-28T21:20:20.674Z,8.77
2018-06-28T21:22:33.121Z,10.03
2018-06-28T21:24:45.500Z,8.50
2018-06-28T21:26:57.973Z,9.97
2018-06-28T21:29:10.354Z,9.73
2018-06-28T21:31:22.799Z,9.43
2018-06-28T21:33:35.159Z,9.00
2018-06-28T21:35:47.550Z,9.23
2018-06-28T21:37:59.914Z,9.17
2018-06-28T21:40:12.428Z,10.20
2018-06-28T21:42:24.740Z,9.87
2018-06-28T21:44:37.142Z,9.60
2018-06-28T21:46:49.544Z,10.80
2018-06-28T21:49:02.418Z,10.43
2018-06-28T21:51:14.781Z,12.13
2018-06-28T21:53:27.221Z,12.70
2018-06-28T21:55:39.754Z,10.03
2018-06-28T21:57:52.039Z,11.57
2018-06-28T22:00:06.702Z,11.53
2018-06-28T22:02:19.100Z,11.70
2018-06-28T22:04:31.447Z,12.37
2018-06-28T22:06:43.874Z,11.93
2018-06-28T22:08:56.230Z,12.27
2018-06-28T22:11:08.600Z,12.40
2018-06-28T22:13:20.986Z,11.13
2018-06-28T22:15:33.362Z,12.10
2018-06-28T22:17:45.743Z,12.13
2018-06-28T22:19:58.277Z,10.37
2018-06-28T22:22:10.618Z,13.10
2018-06-28T22:24:22.971Z,12.00
2018-06-28T22:26:35.544Z,12.70
2018-06-28T22:28:47.947Z,12.83
2018-06-28T22:31:00.323Z,12.60
2018-06-28T22:33:12.813Z,13.03
2018-06-28T22:35:25.133Z,12.70
2018-06-28T22:37:37.489Z,12.30
2018-06-28T22:39:49.814Z,12.53
2018-06-28T22:42:02.202Z,12.90
2018-06-28T22:44:14.543Z,8.83
2018-06-28T22:46:26.861Z,10.00
2018-06-28T22:48:39.185Z,10.17
2018-06-28T22:50:51.683Z,11.57
2018-06-28T22:53:04.057Z,12.00
2018-06-28T22:55:16.612Z,11.60
2018-06-28T22:57:29.019Z,11.50
2018-06-28T22:59:41.339Z,11.93
2018-06-28T23:01:53.806Z,10.70
2018-06-28T23:04:06.301Z,9.17
2018-06-28T23:06:18.685Z,9.37
2018-06-28T23:08:31.062Z,10.37
2018-06-28T23:10:43.530Z,9.30
2018-06-28T23:12:56.022Z,9.53
2018-06-28T23:15:08.542Z,11.10
2018-06-28T23:17:20.978Z,11.20
2018-06-28T23:19:33.417Z,10.93
2018-06-28T23:21:45.746Z,11.43
2018-06-28T23:23:58.054Z,10.73
2018-06-28T23:26:10.497Z,10.27
2018-06-28T23:28:22.855Z,10.60
2018-06-28T23:30:35.218Z,10.87
2018-06-28T23:32:48.079Z,10.60
2018-06-28T23:35:00.362Z,10.23
2018-06-28T23:37:12.746Z,9.47
2018-06-28T23:39:25.223Z,8.63
2018-06-28T23:41:37.586Z,10.90
2018-06-28T23:43:49.934Z,10.97
2018-06-28T23:46:02.513Z,10.90
2018-06-28T23:48:14.840Z,10.93
2018-06-28T23:50:27.215Z,12.37
2018-06-28T23:52:39.650Z,11.30
2018-06-28T23:54:52.105Z,11.20
2018-06-28T23:57:04.662Z,9.90
2018-06-28T23:59:17.058Z,9.63
